createdAt,value
2023-04-15T00:03:23.132Z,55.50
2023-04-15T00:07:22.888Z,61.24
2023-04-15T00:11:23.620Z,59.82
2023-04-15T00:15:23.577Z,59.67
2023-04-15T00:19:23.564Z,60.12
2023-04-15T00:23:24.106Z,57.72
2023-04-15T00:27:23.522Z,58.35
2023-04-15T00:31:24.180Z,59.98
2023-04-15T00:35:23.758Z,60.21
2023-04-15T00:39:24.109Z,56.51
2023-04-15T00:43:24.076Z,57.72
2023-04-15T00:47:24.208Z,58.64
2023-04-15T00:51:24.605Z,57.91
2023-04-15T00:55:25.085Z,59.60
2023-04-15T00:59:24.605Z,59.64
2023-04-15T01:03:24.812Z,55.50
2023-04-15T01:07:24.826Z,55.89
2023-04-15T01:11:24.894Z,54.95
2023-04-15T01:15:25.034Z,57.02
2023-04-15T01:19:25.614Z,56.55
2023-04-15T01:23:25.355Z,58.46
2023-04-15T01:27:25.448Z,55.49
2023-04-15T01:31:25.666Z,54.91
2023-04-15T01:35:26.131Z,56.85
2023-04-15T01:39:26.104Z,52.95
2023-04-15T01:43:26.001Z,52.41
2023-04-15T01:47:26.666Z,55.50
2023-04-15T01:51:26.630Z,59.38
2023-04-15T01:55:27.095Z,50.20
2023-04-15T01:59:26.627Z,51.20
2023-04-15T02:03:26.836Z,53.11
2023-04-15T02:07:27.109Z,54.83
2023-04-15T02:11:27.645Z,52.49
2023-04-15T02:15:27.655Z,52.94
2023-04-15T02:19:27.583Z,54.11
2023-04-15T02:23:27.711Z,55.46
2023-04-15T02:27:28.138Z,53.13
2023-04-15T02:31:28.307Z,49.95
2023-04-15T02:35:28.633Z,54.90
2023-04-15T02:39:28.581Z,52.82
2023-04-15T02:43:28.712Z,49.93
2023-04-15T02:47:29.188Z,51.64
2023-04-15T02:51:29.157Z,49.13
2023-04-15T02:55:29.291Z,53.61
2023-04-15T02:59:29.506Z,50.45
2023-04-15T03:03:29.811Z,49.96
2023-04-15T03:07:30.159Z,52.67
2023-04-15T03:11:29.920Z,52.62
2023-04-15T03:15:30.146Z,49.90
2023-04-15T03:19:29.834Z,47.52
2023-04-15T03:23:30.169Z,51.41
2023-04-15T03:27:30.168Z,54.01
2023-04-15T03:31:29.766Z,50.53
2023-04-15T03:35:30.146Z,53.67
2023-04-15T03:39:29.719Z,53.07
2023-04-15T03:43:29.613Z,51.67
2023-04-15T03:47:29.677Z,50.83
2023-04-15T03:51:30.177Z,48.80
2023-04-15T03:55:30.184Z,49.78
2023-04-15T03:59:29.703Z,51.33
2023-04-15T04:03:29.918Z,53.72
2023-04-15T04:07:29.688Z,52.14
2023-04-15T04:11:29.695Z,45.63
2023-04-15T04:15:29.706Z,47.58
2023-04-15T04:19:29.548Z,50.30
2023-04-15T04:23:29.507Z,48.35
2023-04-15T04:27:30.195Z,50.04
2023-04-15T04:31:29.703Z,46.25
2023-04-15T04:35:29.651Z,45.05
2023-04-15T04:39:29.689Z,44.91
2023-04-15T04:43:29.712Z,44.35
2023-04-15T04:47:29.702Z,47.10
2023-04-15T04:51:29.523Z,44.29
2023-04-15T04:55:29.485Z,44.59
2023-04-15T04:59:29.711Z,49.23
2023-04-15T05:03:29.472Z,44.19
2023-04-15T05:07:29.664Z,44.85
2023-04-15T05:11:29.494Z,46.36
2023-04-15T05:15:29.539Z,40.54
2023-04-15T05:19:29.685Z,43.63
2023-04-15T05:23:29.410Z,41.01
2023-04-15T05:27:29.712Z,41.86
2023-04-15T05:31:29.742Z,43.83
2023-04-15T05:35:29.320Z,39.73
2023-04-15T05:39:29.748Z,41.55
2023-04-15T05:43:29.210Z,40.45
2023-04-15T05:47:29.289Z,43.07
2023-04-15T05:51:29.197Z,39.54
2023-04-15T05:55:29.311Z,39.11
2023-04-15T05:59:29.672Z,41.75
2023-04-15T06:03:29.755Z,40.51
2023-04-15T06:07:29.724Z,35.38
2023-04-15T06:11:29.430Z,34.56
2023-04-15T06:15:29.350Z,40.80
2023-04-15T06:19:29.359Z,35.61
2023-04-15T06:23:29.338Z,36.77
2023-04-15T06:27:29.703Z,34.50
2023-04-15T06:31:29.795Z,35.69
2023-04-15T06:35:29.240Z,32.59
2023-04-15T06:39:29.198Z,35.41
2023-04-15T06:43:29.204Z,34.73
2023-04-15T06:47:29.318Z,35.87
2023-04-15T06:51:29.252Z,33.14
2023-04-15T06:55:29.699Z,32.65
2023-04-15T06:59:29.207Z,32.22
2023-04-15T07:03:30.842Z,36.57
2023-04-15T07:07:29.283Z,32.04
2023-04-15T07:11:28.909Z,29.27
2023-04-15T07:15:29.201Z,32.72
2023-04-15T07:19:28.834Z,33.22
2023-04-15T07:23:29.219Z,32.91
2023-04-15T07:27:28.821Z,26.82
2023-04-15T07:31:28.864Z,31.48
2023-04-15T07:35:28.724Z,34.69
2023-04-15T07:39:28.740Z,34.83
2023-04-15T07:43:28.797Z,30.22
2023-04-15T07:47:28.802Z,33.12
2023-04-15T07:51:28.600Z,35.63
2023-04-15T07:55:28.565Z,32.21
2023-04-15T07:59:28.537Z,36.52
2023-04-15T08:03:28.544Z,31.51
2023-04-15T08:07:28.488Z,31.96
2023-04-15T08:11:28.443Z,31.92
2023-04-15T08:15:28.747Z,31.72
2023-04-15T08:19:28.766Z,31.72
2023-04-15T08:23:29.273Z,29.99
2023-04-15T08:27:29.232Z,32.79
2023-04-15T08:31:29.159Z,36.68
2023-04-15T08:35:29.309Z,30.37
2023-04-15T08:39:29.750Z,29.04
2023-04-15T08:43:29.762Z,32.77
2023-04-15T08:47:29.919Z,34.56
2023-04-15T08:51:30.361Z,29.17
2023-04-15T08:55:30.275Z,33.48
2023-04-15T08:59:30.434Z,31.59
2023-04-15T09:03:30.704Z,26.40
2023-04-15T09:07:30.771Z,27.96
2023-04-15T09:11:31.270Z,30.31
2023-04-15T09:15:31.276Z,29.53
2023-04-15T09:19:31.236Z,32.13
2023-04-15T09:23:31.358Z,31.70
2023-04-15T09:27:31.499Z,28.81
2023-04-15T09:31:31.795Z,28.74
2023-04-15T09:35:31.765Z,26.47
2023-04-15T09:39:31.787Z,28.57
2023-04-15T09:43:32.328Z,28.21
2023-04-15T09:47:32.011Z,29.22
2023-04-15T09:51:32.293Z,27.72
2023-04-15T09:55:32.258Z,29.53
2023-04-15T09:59:32.391Z,25.00
2023-04-15T10:03:32.679Z,27.21
2023-04-15T10:07:32.711Z,30.97
2023-04-15T10:11:33.301Z,28.71
2023-04-15T10:15:33.316Z,29.76
2023-04-15T10:19:33.196Z,29.13
2023-04-15T10:23:33.251Z,29.48
2023-04-15T10:27:33.871Z,28.93
2023-04-15T10:31:33.834Z,30.60
2023-04-15T10:35:33.828Z,27.53
2023-04-15T10:39:33.944Z,32.27
2023-04-15T10:43:34.048Z,31.65
2023-04-15T10:47:34.371Z,29.73
2023-04-15T10:51:34.809Z,30.46
2023-04-15T10:55:34.534Z,27.64
2023-04-15T10:59:34.810Z,30.26
2023-04-15T11:03:35.047Z,29.18
2023-04-15T11:07:35.333Z,26.85
2023-04-15T11:11:35.156Z,28.15
2023-04-15T11:15:35.815Z,30.92
2023-04-15T11:19:35.446Z,29.15
2023-04-15T11:23:35.609Z,30.43
2023-04-15T11:27:35.832Z,29.85
2023-04-15T11:31:36.383Z,29.99
2023-04-15T11:35:36.076Z,28.41
2023-04-15T11:39:36.295Z,28.27
2023-04-15T11:43:36.467Z,25.55
2023-04-15T11:47:36.865Z,28.77
2023-04-15T11:51:36.834Z,31.83
2023-04-15T11:55:37.103Z,30.71
2023-04-15T11:59:45.446Z,32.68
2023-04-15T12:03:38.375Z,31.33
2023-04-15T12:07:37.325Z,29.84
2023-04-15T12:11:37.305Z,31.49
2023-04-15T12:15:37.290Z,25.00
2023-04-15T12:19:37.259Z,32.85
2023-04-15T12:23:37.327Z,30.85
2023-04-15T12:27:37.360Z,29.64
2023-04-15T12:31:37.347Z,34.43
2023-04-15T12:35:37.105Z,30.91
2023-04-15T12:39:37.034Z,28.49
2023-04-15T12:43:37.369Z,28.53
2023-04-15T12:47:37.338Z,31.12
2023-04-15T12:51:37.369Z,34.37
2023-04-15T12:55:37.325Z,29.17
2023-04-15T12:59:37.371Z,34.34
2023-04-15T13:03:45.028Z,28.47
2023-04-15T13:07:37.491Z,32.13
2023-04-15T13:11:37.415Z,34.82
2023-04-15T13:15:37.401Z,28.59
2023-04-15T13:19:37.324Z,32.98
2023-04-15T13:23:37.351Z,31.90
2023-04-15T13:27:37.393Z,34.54
2023-04-15T13:31:37.267Z,32.66
2023-04-15T13:35:37.245Z,37.41
2023-04-15T13:39:37.386Z,30.15
2023-04-15T13:43:37.356Z,32.32
2023-04-15T13:47:37.414Z,32.58
2023-04-15T13:51:37.377Z,34.40
2023-04-15T13:55:37.670Z,37.45
2023-04-15T13:59:37.384Z,35.10
2023-04-15T14:03:37.657Z,35.75
2023-04-15T14:07:37.391Z,35.89
2023-04-15T14:11:37.386Z,31.42
2023-04-15T14:15:37.116Z,36.20
2023-04-15T14:19:37.369Z,33.96
2023-04-15T14:23:37.414Z,32.37
2023-04-15T14:27:37.015Z,33.56
2023-04-15T14:31:37.422Z,33.57
2023-04-15T14:35:37.139Z,34.89
2023-04-15T14:39:37.367Z,32.31
2023-04-15T14:43:37.895Z,36.40
2023-04-15T14:47:37.677Z,36.81
2023-04-15T14:51:39.213Z,35.60
2023-04-15T14:55:37.722Z,42.37
2023-04-15T14:59:37.890Z,40.06
2023-04-15T15:03:37.931Z,40.02
2023-04-15T15:07:37.914Z,37.48
2023-04-15T15:11:37.623Z,38.15
2023-04-15T15:15:37.619Z,38.67
2023-04-15T15:19:37.910Z,38.01
2023-04-15T15:23:37.896Z,40.50
2023-04-15T15:27:38.391Z,42.42
2023-04-15T15:31:37.937Z,38.41
2023-04-15T15:35:37.397Z,37.94
2023-04-15T15:39:37.434Z,39.97
2023-04-15T15:43:37.411Z,39.83
2023-04-15T15:47:37.489Z,39.88
2023-04-15T15:51:37.225Z,41.92
2023-04-15T15:55:37.402Z,39.09
2023-04-15T15:59:37.421Z,45.51
2023-04-15T16:03:37.662Z,41.61
2023-04-15T16:07:37.438Z,44.96
2023-04-15T16:11:37.085Z,42.20
2023-04-15T16:15:37.022Z,42.01
2023-04-15T16:19:36.976Z,43.08
2023-04-15T16:23:37.071Z,46.11
2023-04-15T16:27:54.252Z,40.56
2023-04-15T16:31:38.103Z,42.91
2023-04-15T16:35:37.446Z,48.74
2023-04-15T16:39:37.428Z,46.25
2023-04-15T16:43:37.425Z,46.62
2023-04-15T16:47:37.488Z,46.53
2023-04-15T16:51:37.140Z,48.60
2023-04-15T16:55:37.452Z,46.78
2023-04-15T16:59:37.428Z,47.98
2023-04-15T17:03:37.391Z,50.67
2023-04-15T17:07:37.436Z,47.97
2023-04-15T17:11:37.281Z,50.16
2023-04-15T17:15:37.521Z,49.04
2023-04-15T17:19:37.466Z,49.47
2023-04-15T17:23:37.443Z,52.79
2023-04-15T17:27:37.439Z,51.83
2023-04-15T17:31:37.560Z,53.24
2023-04-15T17:35:37.976Z,52.56
2023-04-15T17:39:38.024Z,49.92
2023-04-15T17:43:37.958Z,53.04
2023-04-15T17:47:38.095Z,55.58
2023-04-15T17:51:37.593Z,50.34
2023-04-15T17:55:37.662Z,54.86
2023-04-15T17:59:37.712Z,55.53
2023-04-15T18:03:38.104Z,53.35
2023-04-15T18:07:37.976Z,58.79
2023-04-15T18:11:37.864Z,56.20
2023-04-15T18:15:37.921Z,54.60
2023-04-15T18:19:37.972Z,55.81
2023-04-15T18:23:38.438Z,59.18
2023-04-15T18:27:38.452Z,58.47
2023-04-15T18:31:38.166Z,56.89
2023-04-15T18:35:38.474Z,58.02
2023-04-15T18:39:38.455Z,56.54
2023-04-15T18:43:38.478Z,60.43
2023-04-15T18:47:38.478Z,58.20
2023-04-15T18:51:38.528Z,59.58
2023-04-15T18:55:38.992Z,59.82
2023-04-15T18:59:38.984Z,61.70
2023-04-15T19:03:38.979Z,61.74
2023-04-15T19:07:38.877Z,62.41
2023-04-15T19:11:38.826Z,60.92
2023-04-15T19:15:38.998Z,61.52
2023-04-15T19:19:39.028Z,63.10
2023-04-15T19:23:39.475Z,64.33
2023-04-15T19:27:39.179Z,64.32
2023-04-15T19:31:39.475Z,64.04
2023-04-15T19:35:39.477Z,60.90
2023-04-15T19:39:39.495Z,64.53
2023-04-15T19:43:39.496Z,64.19
2023-04-15T19:47:39.589Z,67.19
2023-04-15T19:51:39.681Z,63.93
2023-04-15T19:55:40.022Z,64.30
2023-04-15T19:59:39.876Z,64.95
2023-04-15T20:03:40.129Z,64.83
2023-04-15T20:07:40.111Z,62.00
2023-04-15T20:12:47.808Z,66.39
2023-04-15T20:15:41.560Z,62.34
2023-04-15T20:19:40.112Z,65.33
2023-04-15T20:23:40.515Z,66.62
2023-04-15T20:27:40.267Z,67.51
2023-04-15T20:31:40.638Z,65.12
2023-04-15T20:35:40.492Z,66.30
2023-04-15T20:39:41.017Z,64.95
2023-04-15T20:43:40.704Z,64.35
2023-04-15T20:47:41.094Z,66.28
2023-04-15T20:51:41.026Z,67.59
2023-04-15T20:55:41.027Z,69.81
2023-04-15T20:59:41.111Z,64.99
2023-04-15T21:03:41.426Z,69.01
2023-04-15T21:07:41.320Z,66.97
2023-04-15T21:15:41.536Z,67.41
2023-04-15T21:19:41.535Z,68.47
2023-04-15T21:23:41.279Z,68.93
2023-04-15T21:27:41.518Z,69.40
2023-04-15T21:31:41.565Z,69.09
2023-04-15T21:35:41.549Z,69.69
2023-04-15T21:39:41.252Z,69.83
2023-04-15T21:43:41.348Z,69.39
2023-04-15T21:48:00.359Z,68.54
2023-04-15T21:51:42.566Z,67.50
2023-04-15T21:55:41.549Z,68.89
2023-04-15T21:59:41.370Z,67.22
2023-04-15T22:03:41.512Z,70.02
2023-04-15T22:07:41.544Z,72.43
2023-04-15T22:11:42.059Z,68.36
2023-04-15T22:15:41.739Z,72.07
2023-04-15T22:19:41.757Z,73.16
2023-04-15T22:23:41.880Z,72.89
2023-04-15T22:27:42.040Z,69.15
2023-04-15T22:31:42.158Z,72.42
2023-04-15T22:35:42.557Z,68.23
2023-04-15T22:39:42.381Z,70.55
2023-04-15T22:43:42.556Z,72.38
2023-04-15T22:47:43.060Z,75.05
2023-04-15T22:51:43.076Z,70.91
2023-04-15T22:55:42.985Z,72.27
2023-04-15T22:59:43.077Z,70.79
2023-04-15T23:03:56.621Z,74.46
2023-04-15T23:07:58.547Z,73.57
2023-04-15T23:11:45.091Z,78.02
2023-04-15T23:15:44.207Z,75.72
2023-04-15T23:19:43.037Z,75.36
2023-04-15T23:23:43.077Z,74.49
2023-04-15T23:27:43.039Z,74.88
2023-04-15T23:31:43.214Z,72.66
2023-04-15T23:35:42.906Z,72.86
2023-04-15T23:39:42.866Z,71.78
2023-04-15T23:43:43.110Z,73.78
2023-04-15T23:47:43.096Z,73.64
2023-04-15T23:51:43.106Z,71.85
2023-04-15T23:55:42.728Z,72.16
2023-04-15T23:59:46.102Z,74.16
